Time;durP1;ratioP1;P1;durP2;ratioP2;P2;SDS_P1;SDS_P2;PMS_P1;PMS_P2;Temp;Humidity;BMP_temperature;BMP_pressure;BME280_temperature;BME280_humidity;BME280_pressure;Samples;Min_cycle;Max_cycle;Signal;HPM_P1;HPM_P2
2022/03/12 00:01:40;;;;;;;28.67;15.30;;;5.10;42.90;;;;;;5094769;28;20016;-74
2022/03/12 00:04:06;;;;;;;33.85;18.05;;;5.10;43.00;;;;;;5094706;28;20031;-74
2022/03/12 00:06:33;;;;;;;29.42;15.20;;;5.10;43.00;;;;;;5094595;28;20065;-73
2022/03/12 00:08:58;;;;;;;30.92;14.15;;;5.00;43.00;;;;;;5094586;28;20043;-74
2022/03/12 00:11:27;;;;;;;29.02;15.25;;;5.00;43.10;;;;;;5094651;28;20103;-74
2022/03/12 00:13:54;;;;;;;27.85;14.57;;;5.00;43.20;;;;;;5094489;28;20035;-74
2022/03/12 00:16:26;;;;;;;26.42;15.02;;;5.00;43.10;;;;;;5094439;28;20067;-74
2022/03/12 00:18:55;;;;;;;25.17;14.00;;;5.00;43.20;;;;;;5094569;28;20127;-74
2022/03/12 00:21:25;;;;;;;27.52;14.95;;;5.10;43.40;;;;;;5093951;28;20112;-74
2022/03/12 00:23:53;;;;;;;28.08;15.25;;;5.00;43.50;;;;;;5094561;28;20065;-74
2022/03/12 00:26:22;;;;;;;26.70;15.18;;;5.00;43.70;;;;;;5094612;28;20027;-74
2022/03/12 00:28:48;;;;;;;30.83;14.93;;;5.00;43.60;;;;;;5094331;28;20107;-73
2022/03/12 00:31:14;;;;;;;27.20;15.77;;;5.00;43.40;;;;;;5094289;28;20020;-73
2022/03/12 00:33:40;;;;;;;26.98;13.65;;;5.00;43.40;;;;;;5094287;28;20034;-73
2022/03/12 00:36:06;;;;;;;24.08;14.43;;;4.90;43.30;;;;;;5094196;28;20486;-74
2022/03/12 00:38:32;;;;;;;28.48;14.20;;;5.00;43.20;;;;;;5094203;28;20115;-74
2022/03/12 00:40:57;;;;;;;30.33;15.15;;;5.10;43.20;;;;;;5094309;28;20447;-75
2022/03/12 00:43:23;;;;;;;28.00;14.82;;;5.20;43.40;;;;;;5094081;28;20476;-74
2022/03/12 00:45:49;;;;;;;22.48;13.95;;;5.30;43.70;;;;;;5094279;28;20101;-74
2022/03/12 00:48:16;;;;;;;24.17;14.25;;;5.40;43.90;;;;;;5094205;28;20095;-74
2022/03/12 00:50:42;;;;;;;28.95;14.60;;;5.50;43.80;;;;;;5093922;28;20024;-75
2022/03/12 00:53:07;;;;;;;22.98;13.48;;;5.50;43.70;;;;;;5092769;28;20024;-75
2022/03/12 00:55:34;;;;;;;23.02;14.10;;;5.60;43.70;;;;;;5094063;28;20491;-75
2022/03/12 00:57:59;;;;;;;22.98;13.13;;;5.70;43.70;;;;;;5093893;28;20060;-75
2022/03/12 01:00:26;;;;;;;26.98;15.10;;;5.70;43.30;;;;;;5093893;28;20082;-75
2022/03/12 01:02:52;;;;;;;28.20;15.30;;;5.80;42.20;;;;;;5093756;28;20024;-74
2022/03/12 01:05:22;;;;;;;24.90;14.52;;;5.70;41.80;;;;;;5093662;28;20020;-74
2022/03/12 01:07:48;;;;;;;24.13;13.70;;;5.60;41.90;;;;;;5093693;28;20012;-74
2022/03/12 01:10:15;;;;;;;27.05;15.85;;;5.60;42.00;;;;;;5093827;28;20020;-75
2022/03/12 01:12:43;;;;;;;24.88;14.20;;;5.50;42.30;;;;;;5093659;28;20373;-75
2022/03/12 01:15:10;;;;;;;24.80;14.57;;;5.50;42.50;;;;;;5092133;28;20134;-75
2022/03/12 01:17:38;;;;;;;27.67;15.02;;;5.40;42.40;;;;;;5092124;28;20169;-75
2022/03/12 01:20:06;;;;;;;28.75;16.10;;;5.30;42.60;;;;;;5093326;28;20023;-75
2022/03/12 01:22:38;;;;;;;28.95;14.73;;;5.10;43.30;;;;;;5093475;28;20462;-75
2022/03/12 01:25:05;;;;;;;27.20;14.20;;;5.10;43.70;;;;;;5093488;28;20384;-75
2022/03/12 01:27:31;;;;;;;27.60;14.77;;;5.10;43.90;;;;;;5093526;28;20047;-74
2022/03/12 01:29:57;;;;;;;23.55;13.60;;;5.00;44.00;;;;;;5093416;28;20024;-74
2022/03/12 01:32:22;;;;;;;26.48;14.95;;;4.90;44.20;;;;;;5092338;28;20024;-75
2022/03/12 01:34:48;;;;;;;28.80;15.32;;;5.00;44.20;;;;;;5093289;28;20038;-74
2022/03/12 01:37:19;;;;;;;28.55;14.35;;;5.00;44.10;;;;;;5093342;28;20016;-75
2022/03/12 01:39:46;;;;;;;29.20;15.20;;;5.10;44.30;;;;;;5093135;28;20464;-74
2022/03/12 01:42:13;;;;;;;29.67;14.88;;;5.00;44.00;;;;;;5093229;28;20024;-74
2022/03/12 01:44:38;;;;;;;26.30;15.13;;;5.00;44.10;;;;;;5091947;28;20078;-74
2022/03/12 01:47:08;;;;;;;28.85;14.07;;;5.10;44.30;;;;;;5093126;28;20468;-75
2022/03/12 01:49:34;;;;;;;26.83;14.98;;;5.00;44.40;;;;;;5091799;28;20027;-75
2022/03/12 01:52:00;;;;;;;27.27;15.07;;;4.90;44.70;;;;;;5093092;28;20020;-74
2022/03/12 01:54:28;;;;;;;28.02;15.10;;;4.90;45.10;;;;;;5093102;28;20024;-74
2022/03/12 01:56:55;;;;;;;28.60;15.50;;;4.80;45.40;;;;;;5092845;28;20032;-75
2022/03/12 01:59:21;;;;;;;24.73;14.98;;;4.80;45.70;;;;;;5093115;28;20024;-74
2022/03/12 02:01:52;;;;;;;22.67;13.75;;;4.70;45.80;;;;;;5092995;28;20023;-74
2022/03/12 02:04:22;;;;;;;35.60;15.60;;;4.70;45.90;;;;;;5092979;28;20024;-73
2022/03/12 02:06:51;;;;;;;31.05;15.18;;;4.70;46.00;;;;;;5093031;28;20332;-74
2022/03/12 02:09:18;;;;;;;28.60;15.18;;;4.70;46.00;;;;;;5092806;28;20027;-73
2022/03/12 02:11:51;;;;;;;30.67;15.45;;;4.80;46.00;;;;;;5092569;28;20035;-73
2022/03/12 02:14:20;;;;;;;28.80;14.90;;;4.80;46.00;;;;;;5091587;28;20033;-74
2022/03/12 02:16:49;;;;;;;24.45;14.85;;;4.80;46.10;;;;;;5092669;28;20047;-74
2022/03/12 02:19:17;;;;;;;35.88;16.65;;;4.70;46.20;;;;;;5092668;28;20447;-74
2022/03/12 02:21:57;;;;;;;31.40;15.57;;;4.80;46.10;;;;;;5092971;28;20495;-73
2022/03/12 02:24:25;;;;;;;27.98;15.75;;;4.60;46.20;;;;;;5092760;28;20039;-73
2022/03/12 02:26:51;;;;;;;34.55;14.90;;;4.60;46.60;;;;;;5091595;28;20017;-73
2022/03/12 02:29:20;;;;;;;27.20;14.10;;;4.50;46.80;;;;;;5092752;28;20016;-73
2022/03/12 02:31:56;;;;;;;26.65;14.90;;;4.60;46.90;;;;;;5091267;28;20024;-73
2022/03/12 02:34:32;;;;;;;27.48;14.63;;;4.60;46.90;;;;;;5092941;28;20464;-73
2022/03/12 02:36:58;;;;;;;28.95;15.18;;;4.50;47.10;;;;;;5092680;28;20423;-73
2022/03/12 02:39:27;;;;;;;23.55;14.35;;;4.50;47.20;;;;;;5092659;28;20077;-73
2022/03/12 02:41:54;;;;;;;27.65;14.10;;;4.50;47.10;;;;;;5092591;28;20022;-73
2022/03/12 02:44:23;;;;;;;28.98;15.00;;;4.60;47.10;;;;;;5094695;28;20012;-74
2022/03/12 02:47:15;;;;;;;27.42;15.52;;;4.70;47.00;;;;;;5096442;28;20021;-73
2022/03/12 02:49:45;;;;;;;27.75;15.32;;;4.60;46.90;;;;;;5096265;28;20065;-74
2022/03/12 02:52:12;;;;;;;30.50;15.05;;;4.70;47.00;;;;;;5096652;28;20372;-74
2022/03/12 02:54:37;;;;;;;27.27;15.25;;;4.70;47.10;;;;;;5096308;28;20044;-74
2022/03/12 02:57:03;;;;;;;25.05;14.30;;;4.70;47.20;;;;;;5096067;28;20020;-74
2022/03/12 02:59:29;;;;;;;25.85;14.57;;;4.60;47.50;;;;;;5096160;28;20499;-74
2022/03/12 03:02:00;;;;;;;28.67;14.50;;;4.60;47.70;;;;;;5096007;28;20408;-74
2022/03/12 03:04:25;;;;;;;26.40;15.02;;;4.60;47.70;;;;;;5096051;28;20023;-73
2022/03/12 03:06:51;;;;;;;27.52;15.80;;;4.60;47.80;;;;;;5096104;28;20025;-74
2022/03/12 03:09:17;;;;;;;27.10;16.42;;;4.60;47.70;;;;;;5095709;28;20480;-74
2022/03/12 03:11:44;;;;;;;27.63;14.82;;;4.60;47.60;;;;;;5094524;28;20115;-74
2022/03/12 03:14:11;;;;;;;27.00;15.63;;;4.60;47.70;;;;;;5096006;28;20017;-73
2022/03/12 03:16:37;;;;;;;29.42;15.55;;;4.60;47.50;;;;;;5095490;28;20185;-73
2022/03/12 03:19:03;;;;;;;27.45;14.73;;;4.60;47.50;;;;;;5095675;28;20032;-73
2022/03/12 03:21:29;;;;;;;28.10;15.85;;;4.50;47.70;;;;;;5095783;28;20575;-73
2022/03/12 03:23:55;;;;;;;30.13;15.73;;;4.50;47.80;;;;;;5094340;28;20138;-72
2022/03/12 03:26:39;;;;;;;27.10;15.45;;;4.50;48.00;;;;;;5095624;28;20020;-73
2022/03/12 03:29:08;;;;;;;28.20;14.95;;;4.50;48.00;;;;;;5095589;28;20499;-73
2022/03/12 03:31:34;;;;;;;26.90;14.60;;;4.40;48.20;;;;;;5095637;28;20036;-74
2022/03/12 03:34:00;;;;;;;29.83;15.98;;;4.30;48.40;;;;;;5094065;28;20027;-73
2022/03/12 03:36:26;;;;;;;27.95;15.40;;;4.30;48.30;;;;;;5095402;28;20410;-73
2022/03/12 03:38:52;;;;;;;26.38;15.18;;;4.30;48.30;;;;;;5095137;28;20036;-73
2022/03/12 03:41:17;;;;;;;29.63;14.85;;;4.30;48.40;;;;;;5095430;28;20119;-73
2022/03/12 03:43:47;;;;;;;28.13;15.32;;;4.30;48.60;;;;;;5095420;28;20026;-75
2022/03/12 03:46:19;;;;;;;34.22;15.98;;;4.30;48.60;;;;;;5093841;28;20021;-74
2022/03/12 03:48:46;;;;;;;28.23;15.70;;;4.30;48.70;;;;;;5095307;28;20051;-73
2022/03/12 03:51:12;;;;;;;29.63;14.82;;;4.20;48.80;;;;;;5095124;28;20383;-76
2022/03/12 03:53:38;;;;;;;30.38;15.75;;;4.10;48.90;;;;;;5095148;28;20024;-73
2022/03/12 03:56:04;;;;;;;26.52;15.27;;;4.20;48.80;;;;;;5093865;28;20077;-74
2022/03/12 03:58:32;;;;;;;31.15;16.38;;;4.20;48.70;;;;;;5093545;28;20039;-73
2022/03/12 04:01:09;;;;;;;30.48;15.88;;;4.20;48.90;;;;;;5101328;28;20047;-73
2022/03/12 04:03:36;;;;;;;28.65;15.38;;;4.20;49.00;;;;;;5095190;28;20119;-75
2022/03/12 04:06:04;;;;;;;26.20;15.30;;;4.10;49.10;;;;;;5094921;28;20069;-74
2022/03/12 04:08:31;;;;;;;26.50;16.02;;;4.10;49.10;;;;;;5094809;28;20039;-74
2022/03/12 04:10:57;;;;;;;27.63;15.75;;;4.20;49.00;;;;;;5095001;28;20024;-75
2022/03/12 04:13:23;;;;;;;32.58;15.70;;;4.10;49.30;;;;;;5094582;28;20032;-75
2022/03/12 04:15:51;;;;;;;29.88;16.48;;;4.20;49.20;;;;;;5094636;28;20040;-73
2022/03/12 04:18:18;;;;;;;31.45;15.65;;;4.20;49.00;;;;;;5094538;28;20099;-75
2022/03/12 04:20:46;;;;;;;30.50;15.68;;;4.20;48.80;;;;;;5094438;28;20098;-73
2022/03/12 04:23:12;;;;;;;27.02;15.13;;;4.20;48.90;;;;;;5094638;28;20545;-73
2022/03/12 04:25:38;;;;;;;29.25;15.70;;;4.30;49.00;;;;;;5094525;28;20020;-73
2022/03/12 04:28:05;;;;;;;29.67;15.55;;;4.30;49.10;;;;;;5094489;28;20020;-73
2022/03/12 04:30:31;;;;;;;28.63;14.75;;;4.30;49.10;;;;;;5094440;28;20031;-73
2022/03/12 04:32:56;;;;;;;34.35;17.63;;;4.30;49.30;;;;;;5094230;28;20020;-74
2022/03/12 04:35:22;;;;;;;28.52;16.42;;;4.30;49.50;;;;;;5094233;28;20537;-74
2022/03/12 04:37:48;;;;;;;30.42;16.33;;;4.30;49.80;;;;;;5094157;28;20047;-77
2022/03/12 04:40:23;;;;;;;31.08;15.57;;;4.20;49.90;;;;;;5094190;28;20034;-76
2022/03/12 04:42:48;;;;;;;26.40;11.77;;;4.10;50.20;;;;;;5094208;28;20069;-75
2022/03/12 04:45:17;;;;;;;33.80;15.27;;;4.10;51.20;;;;;;5094107;28;20262;-75
2022/03/12 04:47:48;;;;;;;29.23;15.95;;;4.00;50.60;;;;;;5093914;28;20048;-75
2022/03/12 04:50:14;;;;;;;28.83;15.38;;;4.00;50.60;;;;;;5093918;28;20028;-74
2022/03/12 04:52:44;;;;;;;29.77;15.68;;;4.00;50.90;;;;;;5093987;28;20456;-75
2022/03/12 04:55:12;;;;;;;31.58;15.15;;;4.10;50.70;;;;;;5093774;28;20028;-74
2022/03/12 04:57:39;;;;;;;29.83;15.77;;;4.10;50.50;;;;;;5093770;28;20012;-74
2022/03/12 05:00:06;;;;;;;27.02;15.15;;;4.20;50.40;;;;;;5093706;28;20043;-74
2022/03/12 05:02:32;;;;;;;29.30;15.85;;;4.30;50.60;;;;;;5093891;28;20029;-74
2022/03/12 05:04:58;;;;;;;28.70;15.77;;;4.40;50.30;;;;;;5093716;28;20024;-75
2022/03/12 05:07:25;;;;;;;27.83;15.38;;;4.40;50.10;;;;;;5093601;28;20020;-75
2022/03/12 05:09:51;;;;;;;29.17;15.85;;;4.30;50.10;;;;;;5093507;28;20012;-76
2022/03/12 05:12:17;;;;;;;27.83;15.32;;;4.30;50.10;;;;;;5093633;28;20107;-76
2022/03/12 05:14:44;;;;;;;27.08;13.88;;;4.30;50.00;;;;;;5093560;28;20059;-76
2022/03/12 05:17:14;;;;;;;29.95;16.48;;;4.40;49.80;;;;;;5073311;28;20037;-76
2022/03/12 05:19:39;;;;;;;30.27;15.45;;;4.40;49.70;;;;;;5073165;28;20085;-76
2022/03/12 05:22:07;;;;;;;25.80;15.05;;;4.40;49.70;;;;;;5073160;28;20024;-76
2022/03/12 05:24:33;;;;;;;29.13;15.23;;;4.50;49.80;;;;;;5073173;28;20081;-75
2022/03/12 05:27:00;;;;;;;27.52;15.40;;;4.50;49.80;;;;;;5073055;28;20020;-75
2022/03/12 05:29:26;;;;;;;31.52;16.33;;;4.50;49.60;;;;;;5073105;28;20020;-73
2022/03/12 05:31:55;;;;;;;31.67;16.75;;;4.60;49.60;;;;;;5073077;28;20047;-74
2022/03/12 05:34:22;;;;;;;36.25;16.42;;;4.60;49.50;;;;;;5073203;28;20388;-73
2022/03/12 05:36:49;;;;;;;29.83;16.98;;;4.60;49.30;;;;;;5072928;28;20115;-73
2022/03/12 05:39:15;;;;;;;28.42;15.73;;;4.60;49.20;;;;;;5071469;28;20028;-73
2022/03/12 05:41:42;;;;;;;29.25;15.68;;;4.70;49.20;;;;;;5073068;28;20491;-73
2022/03/12 05:44:07;;;;;;;26.20;15.43;;;4.70;49.20;;;;;;5073037;28;20099;-73
2022/03/12 05:46:33;;;;;;;33.80;16.50;;;4.80;49.30;;;;;;5072963;28;20051;-74
2022/03/12 05:48:59;;;;;;;29.98;16.60;;;4.80;49.30;;;;;;5072780;28;20028;-74
2022/03/12 05:51:24;;;;;;;26.85;15.20;;;4.70;49.20;;;;;;5072906;28;20556;-74
2022/03/12 05:53:50;;;;;;;27.00;14.82;;;4.80;49.20;;;;;;5072946;28;20032;-74
2022/03/12 05:56:16;;;;;;;30.50;14.55;;;4.90;49.10;;;;;;5073020;28;20028;-74
2022/03/12 05:58:41;;;;;;;30.58;15.70;;;4.90;49.10;;;;;;5072797;28;20044;-74
2022/03/12 06:01:07;;;;;;;27.70;15.23;;;4.90;49.20;;;;;;5072045;28;20028;-74
2022/03/12 06:03:33;;;;;;;28.48;16.23;;;4.90;49.30;;;;;;5072722;28;20054;-74
2022/03/12 06:05:59;;;;;;;32.13;15.20;;;4.90;49.30;;;;;;5072839;28;20503;-74
2022/03/12 06:08:27;;;;;;;29.10;15.70;;;4.90;49.40;;;;;;5072648;28;20028;-74
2022/03/12 06:10:55;;;;;;;29.30;17.45;;;4.90;49.80;;;;;;5072744;28;20052;-74
2022/03/12 06:13:27;;;;;;;31.25;15.85;;;4.80;50.30;;;;;;5071454;28;20028;-74
2022/03/12 06:15:58;;;;;;;28.63;14.93;;;4.70;50.90;;;;;;5082226;28;20048;-74
2022/03/12 06:18:26;;;;;;;29.00;15.35;;;4.70;50.90;;;;;;5093563;28;20028;-74
2022/03/12 06:20:52;;;;;;;29.30;17.00;;;4.70;50.80;;;;;;5096746;28;20436;-74
2022/03/12 06:23:18;;;;;;;27.08;15.40;;;4.70;50.80;;;;;;5096677;28;20055;-74
2022/03/12 06:25:43;;;;;;;30.25;15.93;;;4.80;50.50;;;;;;5095557;28;20093;-75
2022/03/12 06:28:09;;;;;;;31.98;16.95;;;4.80;50.20;;;;;;5096669;28;20463;-74
2022/03/12 06:30:34;;;;;;;29.02;15.77;;;4.90;50.20;;;;;;5096530;28;20040;-74
2022/03/12 06:33:03;;;;;;;28.52;15.65;;;4.90;50.40;;;;;;5096229;28;20027;-76
2022/03/12 06:35:29;;;;;;;29.73;16.52;;;4.90;50.40;;;;;;5096820;28;20024;-75
2022/03/12 06:37:56;;;;;;;28.75;16.23;;;4.90;50.40;;;;;;5096566;28;20035;-74
2022/03/12 06:40:28;;;;;;;31.27;16.15;;;5.00;50.40;;;;;;5096454;28;20020;-74
2022/03/12 06:42:55;;;;;;;32.17;17.20;;;5.00;50.10;;;;;;5096683;28;20048;-76
2022/03/12 06:45:21;;;;;;;31.33;16.25;;;5.10;50.20;;;;;;5096357;28;20024;-74
2022/03/12 06:47:47;;;;;;;34.28;18.92;;;5.20;50.00;;;;;;5096300;28;20020;-74
2022/03/12 06:50:17;;;;;;;30.70;17.40;;;5.20;49.90;;;;;;5096376;28;20035;-74
2022/03/12 06:52:47;;;;;;;34.10;17.88;;;5.30;49.70;;;;;;5096207;28;20532;-75
2022/03/12 06:55:14;;;;;;;32.15;17.10;;;5.40;49.50;;;;;;5096142;28;20027;-75
2022/03/12 06:57:40;;;;;;;33.53;17.63;;;5.40;49.40;;;;;;5094869;28;20030;-75
2022/03/12 07:00:12;;;;;;;33.22;18.63;;;5.50;49.40;;;;;;5095786;28;20040;-76
2022/03/12 07:02:38;;;;;;;34.90;18.40;;;5.60;49.20;;;;;;5095932;28;20103;-76
2022/03/12 07:05:08;;;;;;;35.03;17.92;;;5.70;48.90;;;;;;5096550;28;20059;-75
2022/03/12 07:07:33;;;;;;;31.60;16.92;;;5.70;48.60;;;;;;5096874;28;20016;-77
2022/03/12 07:09:59;;;;;;;31.98;16.67;;;5.80;48.40;;;;;;5097052;28;20031;-74
2022/03/12 07:12:25;;;;;;;31.83;17.42;;;6.00;49.50;;;;;;5097388;28;20028;-76
2022/03/12 07:14:51;;;;;;;31.58;17.60;;;6.20;48.60;;;;;;5096617;28;20026;-77
2022/03/12 07:17:17;;;;;;;33.58;17.90;;;6.40;48.00;;;;;;5097315;28;20103;-77
2022/03/12 07:19:42;;;;;;;36.30;18.15;;;6.50;47.60;;;;;;5096756;28;20475;-75
2022/03/12 07:22:08;;;;;;;30.55;17.58;;;6.70;46.70;;;;;;5096860;28;20031;-77
2022/03/12 07:24:35;;;;;;;33.13;18.27;;;6.80;46.10;;;;;;5094924;28;20388;-78
2022/03/12 07:27:01;;;;;;;33.10;18.48;;;6.90;45.90;;;;;;5096445;28;20354;-75
2022/03/12 07:29:29;;;;;;;33.13;16.38;;;7.10;46.00;;;;;;5095681;28;20024;-75
2022/03/12 07:31:55;;;;;;;42.15;19.30;;;7.30;50.10;;;;;;5095423;28;20086;-75
2022/03/12 07:34:21;;;;;;;31.83;16.80;;;7.70;48.90;;;;;;5095971;28;20024;-73
2022/03/12 07:36:47;;;;;;;39.40;17.95;;;8.20;47.60;;;;;;5095915;28;20103;-73
2022/03/12 07:39:13;;;;;;;36.05;18.52;;;8.70;46.70;;;;;;5097205;28;20040;-73
2022/03/12 07:41:39;;;;;;;34.15;19.08;;;9.20;44.00;;;;;;5097933;28;20027;-73
2022/03/12 07:44:07;;;;;;;30.60;17.67;;;9.40;42.90;;;;;;5097058;28;20024;-75
2022/03/12 07:46:33;;;;;;;29.02;16.30;;;9.60;42.20;;;;;;5096047;28;20030;-74
2022/03/12 07:48:59;;;;;;;31.23;17.08;;;9.70;41.10;;;;;;5096717;28;20419;-74
2022/03/12 07:51:26;;;;;;;29.95;16.90;;;10.10;40.80;;;;;;5096344;28;20012;-74
2022/03/12 07:53:52;;;;;;;28.98;16.92;;;10.30;40.20;;;;;;5095904;28;20024;-77
2022/03/12 07:56:18;;;;;;;27.55;16.08;;;10.60;39.50;;;;;;5095450;28;20023;-74
2022/03/12 07:58:44;;;;;;;28.65;17.65;;;10.70;39.00;;;;;;5099306;28;20032;-74
2022/03/12 08:01:10;;;;;;;32.10;17.48;;;10.90;38.40;;;;;;5095441;28;20377;-75
2022/03/12 08:03:36;;;;;;;31.38;18.35;;;11.00;38.60;;;;;;5094236;28;20028;-75
2022/03/12 08:06:07;;;;;;;31.48;17.77;;;11.20;38.80;;;;;;5095358;28;20035;-75
2022/03/12 08:08:33;;;;;;;36.40;19.65;;;11.00;38.60;;;;;;5095040;28;20032;-76
2022/03/12 08:13:44;;;;;;;33.60;20.70;;;10.50;39.10;;;;;;5094829;28;20498;-74
2022/03/12 08:16:13;;;;;;;30.50;18.23;;;10.50;39.50;;;;;;5093299;28;20446;-75
2022/03/12 08:18:39;;;;;;;35.45;19.20;;;10.50;39.10;;;;;;5094298;28;20032;-76
2022/03/12 08:21:05;;;;;;;31.52;18.83;;;10.50;39.20;;;;;;5094453;28;20027;-75
2022/03/12 08:23:31;;;;;;;29.63;18.10;;;10.40;40.00;;;;;;5094546;28;20020;-76
2022/03/12 08:25:57;;;;;;;30.70;17.58;;;10.30;40.80;;;;;;5094163;28;20036;-75
2022/03/12 08:28:23;;;;;;;31.33;18.75;;;10.30;40.90;;;;;;5094571;28;20028;-77
2022/03/12 08:30:49;;;;;;;29.98;17.42;;;10.30;40.20;;;;;;5093868;28;20016;-74
2022/03/12 08:33:14;;;;;;;32.22;17.92;;;10.40;40.20;;;;;;5092801;28;20078;-76
2022/03/12 08:35:40;;;;;;;29.92;17.55;;;10.50;40.20;;;;;;5094256;28;20020;-76
2022/03/12 08:38:08;;;;;;;38.78;22.65;;;10.60;40.00;;;;;;5092781;28;20028;-76
2022/03/12 08:40:35;;;;;;;31.13;18.73;;;10.70;39.70;;;;;;5094116;28;20444;-76
2022/03/12 08:43:00;;;;;;;32.08;17.85;;;10.80;39.50;;;;;;5093302;28;20031;-76
2022/03/12 08:45:26;;;;;;;30.55;18.48;;;10.80;39.10;;;;;;5092629;28;20028;-76
2022/03/12 08:47:51;;;;;;;29.65;17.67;;;10.80;39.10;;;;;;5093643;28;20032;-77
2022/03/12 08:50:19;;;;;;;31.48;17.17;;;10.90;39.10;;;;;;5093953;28;20027;-76
2022/03/12 08:52:44;;;;;;;27.63;16.63;;;10.90;39.60;;;;;;5093782;28;20103;-76
2022/03/12 08:55:11;;;;;;;30.30;16.65;;;11.20;38.90;;;;;;5093543;28;20099;-77
2022/03/12 08:57:36;;;;;;;37.60;18.98;;;11.30;38.10;;;;;;5093535;28;20064;-75
2022/03/12 09:00:08;;;;;;;31.73;18.40;;;11.30;37.70;;;;;;5093516;28;20047;-76
2022/03/12 09:02:35;;;;;;;36.15;18.67;;;11.10;38.20;;;;;;5093948;28;20032;-75
2022/03/12 09:05:04;;;;;;;33.75;18.10;;;11.30;38.20;;;;;;5093662;28;20042;-76
2022/03/12 09:07:30;;;;;;;32.03;18.88;;;11.30;38.10;;;;;;5093899;28;20024;-75
2022/03/12 09:09:56;;;;;;;33.22;18.70;;;11.50;38.20;;;;;;5093607;28;20038;-76
2022/03/12 09:12:21;;;;;;;35.00;18.63;;;11.60;37.10;;;;;;5093687;28;20472;-76
2022/03/12 09:14:47;;;;;;;30.63;18.52;;;11.70;37.40;;;;;;5093181;28;20317;-75
2022/03/12 09:17:13;;;;;;;33.22;18.05;;;11.90;37.20;;;;;;5093314;28;20085;-74
2022/03/12 09:19:38;;;;;;;34.17;19.00;;;11.90;37.70;;;;;;5093233;28;20504;-74
2022/03/12 09:22:05;;;;;;;31.10;18.25;;;12.20;37.60;;;;;;5093387;28;20123;-76
2022/03/12 09:24:31;;;;;;;31.85;18.70;;;12.50;37.50;;;;;;5093602;28;20058;-75
2022/03/12 09:26:57;;;;;;;34.80;18.90;;;12.70;36.80;;;;;;5093369;28;20098;-75
2022/03/12 09:29:22;;;;;;;30.30;18.48;;;12.70;36.10;;;;;;5093512;28;20113;-77
2022/03/12 09:31:49;;;;;;;30.25;18.73;;;12.80;36.10;;;;;;5093029;28;20090;-76
2022/03/12 09:34:15;;;;;;;29.95;18.17;;;12.70;35.40;;;;;;5091354;28;20024;-74
2022/03/12 09:36:41;;;;;;;37.53;18.40;;;12.60;35.50;;;;;;5093114;28;20468;-75
2022/03/12 09:39:07;;;;;;;28.65;16.60;;;12.60;35.80;;;;;;5093123;28;20520;-76
2022/03/12 09:41:34;;;;;;;30.58;18.05;;;12.80;36.20;;;;;;5093398;28;20019;-75
2022/03/12 09:44:00;;;;;;;32.83;17.27;;;12.90;35.70;;;;;;5093420;28;20048;-75
2022/03/12 09:46:26;;;;;;;29.98;17.38;;;12.80;35.70;;;;;;5093261;28;20503;-74
2022/03/12 09:48:51;;;;;;;27.63;16.90;;;12.90;35.70;;;;;;5093156;28;20028;-76
2022/03/12 09:51:18;;;;;;;32.42;18.92;;;12.90;35.90;;;;;;5092887;28;20170;-75
2022/03/12 09:53:43;;;;;;;28.90;16.48;;;13.00;35.90;;;;;;5092287;28;20032;-76
2022/03/12 09:56:09;;;;;;;29.17;17.00;;;13.00;36.00;;;;;;5093094;28;20024;-75
2022/03/12 09:58:35;;;;;;;30.75;17.92;;;13.20;35.90;;;;;;5093197;28;20085;-75
2022/03/12 10:01:00;;;;;;;26.35;16.77;;;13.20;35.80;;;;;;5092977;28;20111;-75
2022/03/12 10:03:26;;;;;;;28.70;17.15;;;13.50;36.20;;;;;;5092996;28;20082;-75
2022/03/12 10:05:52;;;;;;;30.95;17.08;;;13.70;35.50;;;;;;5091839;28;20024;-76
2022/03/12 10:08:17;;;;;;;32.08;17.33;;;13.90;34.60;;;;;;5093137;28;20020;-76
2022/03/12 10:10:44;;;;;;;27.02;17.08;;;14.20;34.10;;;;;;5091538;28;20434;-75
2022/03/12 10:13:10;;;;;;;30.75;17.33;;;14.60;33.80;;;;;;5092491;28;20051;-77
2022/03/12 10:15:37;;;;;;;27.45;17.15;;;14.70;33.30;;;;;;5092755;28;20079;-76
2022/03/12 10:18:03;;;;;;;28.30;17.08;;;14.90;32.40;;;;;;5092610;28;20028;-76
2022/03/12 10:20:30;;;;;;;25.92;16.73;;;15.20;32.00;;;;;;5092865;28;20079;-76
2022/03/12 10:22:56;;;;;;;31.80;18.13;;;15.30;31.80;;;;;;5092960;28;20042;-74
2022/03/12 10:25:22;;;;;;;27.60;17.17;;;15.50;31.20;;;;;;5092545;28;20503;-75
2022/03/12 10:27:48;;;;;;;26.55;17.00;;;15.50;31.10;;;;;;5092534;28;20026;-75
2022/03/12 10:30:14;;;;;;;26.67;17.05;;;15.80;30.70;;;;;;5092700;28;20020;-74
2022/03/12 10:32:45;;;;;;;27.52;18.58;;;16.10;30.40;;;;;;5092553;28;20107;-75
2022/03/12 10:35:14;;;;;;;30.73;17.38;;;16.20;29.50;;;;;;5092753;28;20522;-74
2022/03/12 10:37:40;;;;;;;26.08;16.85;;;16.30;29.30;;;;;;5092826;28;20020;-75
2022/03/12 10:40:14;;;;;;;22.13;15.07;;;16.40;28.80;;;;;;5092778;28;20115;-74
2022/03/12 10:43:05;;;;;;;23.70;15.85;;;16.40;28.70;;;;;;5091268;28;20020;-76
2022/03/12 10:45:38;;;;;;;24.70;15.80;;;16.60;28.90;;;;;;5091529;28;20024;-76
2022/03/12 10:48:05;;;;;;;26.05;16.77;;;16.80;29.10;;;;;;5091048;28;20020;-74
2022/03/12 10:50:36;;;;;;;23.63;15.40;;;16.90;28.30;;;;;;5091063;28;20334;-74
2022/03/12 10:53:06;;;;;;;22.58;15.35;;;16.90;29.20;;;;;;5091018;28;20439;-75
2022/03/12 10:55:42;;;;;;;27.98;16.67;;;17.10;29.30;;;;;;5105956;28;20035;-75
2022/03/12 10:58:15;;;;;;;23.98;16.00;;;17.20;29.60;;;;;;5090965;28;20024;-76
2022/03/12 11:01:01;;;;;;;21.40;15.68;;;17.40;28.20;;;;;;5091347;28;20111;-76
2022/03/12 11:03:32;;;;;;;21.55;15.73;;;17.60;28.30;;;;;;5090559;28;20024;-77
2022/03/12 11:05:59;;;;;;;20.25;15.25;;;17.70;28.20;;;;;;5093532;28;20213;-76
2022/03/12 11:08:27;;;;;;;25.50;17.08;;;17.90;27.50;;;;;;5094477;28;20101;-77
2022/03/12 11:11:06;;;;;;;26.95;15.63;;;18.10;26.90;;;;;;5094274;28;20139;-76
2022/03/12 11:13:41;;;;;;;23.23;16.65;;;18.30;26.50;;;;;;5093657;28;20039;-76
2022/03/12 11:16:24;;;;;;;25.50;16.33;;;18.30;25.70;;;;;;5091566;28;20365;-74
2022/03/12 11:18:53;;;;;;;23.27;16.42;;;17.80;25.80;;;;;;5092386;28;20028;-74
2022/03/12 11:21:37;;;;;;;26.08;16.67;;;17.20;26.70;;;;;;5094933;28;20020;-75
2022/03/12 11:24:06;;;;;;;29.27;18.58;;;17.10;28.30;;;;;;5094181;28;20028;-76
2022/03/12 11:26:44;;;;;;;26.83;17.80;;;16.90;28.60;;;;;;5093019;28;20535;-76
2022/03/12 11:29:11;;;;;;;29.48;18.77;;;16.20;29.30;;;;;;5093947;28;20094;-75
2022/03/12 11:31:40;;;;;;;24.33;17.13;;;16.00;29.80;;;;;;5095274;28;20028;-75
2022/03/12 11:34:14;;;;;;;29.83;18.05;;;16.20;30.40;;;;;;5094193;28;20055;-75
2022/03/12 11:36:43;;;;;;;27.23;18.20;;;16.10;30.00;;;;;;5093821;28;20020;-75
2022/03/12 11:39:09;;;;;;;27.85;18.95;;;16.10;30.50;;;;;;5093623;28;20039;-75
2022/03/12 11:41:37;;;;;;;29.08;19.02;;;16.00;30.70;;;;;;5093959;28;20506;-75
2022/03/12 11:44:08;;;;;;;27.55;17.80;;;16.10;29.80;;;;;;5076088;28;20040;-75
2022/03/12 11:46:33;;;;;;;30.70;18.30;;;16.00;30.10;;;;;;5093849;28;20055;-75
2022/03/12 11:48:59;;;;;;;29.58;18.88;;;16.20;30.70;;;;;;5093960;28;20433;-76
2022/03/12 11:51:25;;;;;;;28.98;18.75;;;16.20;30.90;;;;;;5094946;28;20606;-73
2022/03/12 11:53:53;;;;;;;25.70;17.48;;;16.50;31.00;;;;;;5095180;28;20066;-76
2022/03/12 11:56:19;;;;;;;23.92;17.02;;;16.40;30.30;;;;;;5094976;28;20499;-76
2022/03/12 11:58:45;;;;;;;27.10;16.80;;;15.60;30.90;;;;;;5093502;28;20096;-77
2022/03/12 12:01:19;;;;;;;25.25;16.45;;;15.00;32.30;;;;;;5093291;28;20036;-76
2022/03/12 12:03:48;;;;;;;25.65;16.92;;;15.10;33.10;;;;;;5093253;28;20025;-76
2022/03/12 12:06:14;;;;;;;23.55;15.60;;;15.30;33.30;;;;;;5076076;28;20104;-79
2022/03/12 12:08:40;;;;;;;23.30;16.35;;;15.50;32.90;;;;;;5093379;28;20056;-75
2022/03/12 12:11:07;;;;;;;23.67;17.00;;;15.80;32.00;;;;;;5093258;28;20032;-77
2022/03/12 12:13:33;;;;;;;24.17;16.02;;;15.80;31.70;;;;;;5093205;28;20024;-75
2022/03/12 12:15:59;;;;;;;28.05;16.83;;;15.90;31.80;;;;;;5093160;28;20377;-74
2022/03/12 12:18:25;;;;;;;31.30;16.70;;;15.90;31.30;;;;;;5076517;28;20044;-75
2022/03/12 12:20:51;;;;;;;29.55;17.08;;;15.70;31.40;;;;;;5093153;28;20039;-74
2022/03/12 12:23:19;;;;;;;24.25;16.30;;;15.70;31.80;;;;;;5093414;28;20024;-75
2022/03/12 12:25:45;;;;;;;26.02;16.58;;;15.40;32.10;;;;;;5092718;28;20147;-76
2022/03/12 12:28:23;;;;;;;24.10;15.85;;;15.10;33.00;;;;;;5093022;28;20023;-74
2022/03/12 12:30:50;;;;;;;25.73;16.10;;;15.10;33.50;;;;;;5094468;28;20020;-75
2022/03/12 12:33:24;;;;;;;26.20;16.05;;;15.40;33.40;;;;;;5094017;28;20028;-73
2022/03/12 12:35:52;;;;;;;22.45;15.48;;;15.50;33.00;;;;;;5092599;28;20024;-76
2022/03/12 12:38:21;;;;;;;28.27;16.02;;;15.50;32.90;;;;;;5093152;28;20020;-76